Time;durP1;ratioP1;P1;durP2;ratioP2;P2;SDS_P1;SDS_P2;PMS_P1;PMS_P2;Temp;Humidity;BMP_temperature;BMP_pressure;BME280_temperature;BME280_humidity;BME280_pressure;Samples;Min_cycle;Max_cycle;Signal;HPM_P1;HPM_P2
2024/01/18 00:00:01;;;;;;;0.97;0.90;;;;;;;12.27;nan;96888.03;4985563;28;20509;-79
2024/01/18 00:02:30;;;;;;;2.00;0.70;;;;;;;12.25;nan;96885.56;4983221;28;20203;-80
2024/01/18 00:04:56;;;;;;;1.40;1.00;;;;;;;12.25;nan;96884.75;4983628;28;20217;-79
2024/01/18 00:07:22;;;;;;;1.20;0.90;;;;;;;12.25;nan;96884.75;4984126;28;20621;-79
2024/01/18 00:09:47;;;;;;;1.30;0.90;;;;;;;12.25;nan;96892.66;4984974;28;20195;-79
2024/01/18 00:12:12;;;;;;;1.77;1.17;;;;;;;12.26;nan;96886.38;4983711;28;20227;-79
2024/01/18 00:14:38;;;;;;;0.80;0.80;;;;;;;12.30;nan;96883.22;4984508;28;20211;-79
2024/01/18 00:17:03;;;;;;;1.07;0.60;;;;;;;12.31;nan;96884.88;4984046;28;20212;-79
2024/01/18 00:19:29;;;;;;;3.00;0.80;;;;;;;12.31;nan;96891.94;4984416;28;20207;-79
2024/01/18 00:21:54;;;;;;;0.80;0.70;;;;;;;12.34;nan;96884.53;4985865;28;20227;-79
2024/01/18 00:24:20;;;;;;;1.57;0.77;;;;;;;12.38;nan;96900.78;4985122;28;20230;-79
2024/01/18 00:26:45;;;;;;;1.00;0.70;;;;;;;12.38;nan;96885.00;4973684;23;20261;-76
2024/01/18 00:29:11;;;;;;;1.17;0.80;;;;;;;12.39;nan;96886.63;4940075;28;20563;-76
2024/01/18 00:31:36;;;;;;;1.80;0.90;;;;;;;12.42;nan;96895.97;4966232;28;20285;-76
2024/01/18 00:34:01;;;;;;;3.07;0.80;;;;;;;12.42;nan;96899.44;4966116;28;20632;-76
2024/01/18 00:36:27;;;;;;;1.43;0.70;;;;;;;12.41;nan;96889.91;4968328;28;20211;-76
2024/01/18 00:38:52;;;;;;;1.90;1.10;;;;;;;12.41;nan;96895.16;4969407;28;20991;-76
2024/01/18 00:41:18;;;;;;;1.13;0.80;;;;;;;12.38;nan;96875.28;4970276;28;20302;-76
2024/01/18 00:43:43;;;;;;;0.90;0.70;;;;;;;12.39;nan;96883.97;4967009;28;20206;-78
2024/01/18 00:46:09;;;;;;;0.93;0.83;;;;;;;12.36;nan;96886.97;4971581;28;20214;-78
2024/01/18 00:48:34;;;;;;;2.20;0.87;;;;;;;12.34;nan;96895.06;4971890;28;20201;-78
2024/01/18 00:50:59;;;;;;;5.47;1.20;;;;;;;12.35;nan;96888.78;4969478;28;20571;-78
2024/01/18 00:53:25;;;;;;;1.40;0.80;;;;;;;12.37;nan;96893.91;4967224;28;20602;-78
2024/01/18 00:55:50;;;;;;;2.60;0.70;;;;;;;12.36;nan;96889.59;4967631;28;21212;-78
2024/01/18 00:58:16;;;;;;;1.23;1.13;;;;;;;12.34;nan;96894.22;4968315;28;20291;-78
2024/01/18 01:00:41;;;;;;;1.30;0.80;;;;;;;12.35;nan;96894.06;4968023;28;20632;-78
2024/01/18 01:03:07;;;;;;;1.30;0.60;;;;;;;12.37;nan;96889.44;4968333;28;20205;-78
2024/01/18 01:05:32;;;;;;;0.93;0.70;;;;;;;12.37;nan;96893.91;4969912;28;20727;-78
2024/01/18 01:07:57;;;;;;;0.80;0.70;;;;;;;12.36;nan;96898.31;4969708;28;20180;-78
2024/01/18 01:10:23;;;;;;;1.17;0.70;;;;;;;12.34;nan;96897.69;4969434;28;20195;-78
2024/01/18 01:12:48;;;;;;;2.57;0.73;;;;;;;12.36;nan;96894.88;4969269;28;21162;-78
2024/01/18 01:15:13;;;;;;;0.87;0.70;;;;;;;12.37;nan;96896.53;4966437;28;20212;-78
2024/01/18 01:17:39;;;;;;;1.37;0.70;;;;;;;12.37;nan;96904.44;4970223;28;20239;-78
2024/01/18 01:20:11;;;;;;;1.63;0.80;;;;;;;12.36;nan;96902.78;4970265;28;20664;-78
2024/01/18 01:22:36;;;;;;;1.17;0.75;;;;;;;12.36;nan;96895.69;4968930;28;20219;-78
2024/01/18 01:25:02;;;;;;;0.80;0.80;;;;;;;12.34;nan;96897.69;4968941;28;20239;-78
2024/01/18 01:27:27;;;;;;;4.03;1.00;;;;;;;12.34;nan;96894.22;4969084;28;20203;-78
2024/01/18 01:29:53;;;;;;;1.50;0.93;;;;;;;12.33;nan;96890.78;4968096;28;20199;-78
2024/01/18 01:32:18;;;;;;;1.53;0.90;;;;;;;12.32;nan;96899.69;4968267;28;20200;-78
2024/01/18 01:34:43;;;;;;;4.93;0.90;;;;;;;12.37;nan;96883.38;4969390;28;20203;-78
2024/01/18 01:37:13;;;;;;;1.67;0.90;;;;;;;12.36;nan;96892.25;4969987;28;20314;-78
2024/01/18 01:39:40;;;;;;;1.85;0.88;;;;;;;12.38;nan;96903.41;4971810;28;20204;-78
2024/01/18 01:42:05;;;;;;;1.50;0.80;;;;;;;12.35;nan;96894.06;4975078;28;20675;-78
2024/01/18 01:44:31;;;;;;;1.23;1.07;;;;;;;12.35;nan;96891.44;4972791;28;20702;-78
2024/01/18 01:46:56;;;;;;;2.80;0.97;;;;;;;12.34;nan;96888.97;4973008;28;20205;-78
2024/01/18 01:49:22;;;;;;;1.63;0.97;;;;;;;12.30;nan;96892.94;4973946;28;20760;-78
2024/01/18 01:51:49;;;;;;;1.20;0.90;;;;;;;12.29;nan;96896.59;4973128;28;20271;-78
2024/01/18 01:54:18;;;;;;;3.90;1.00;;;;;;;12.29;nan;96886.06;4973179;28;20224;-79
2024/01/18 01:56:46;;;;;;;1.00;0.90;;;;;;;12.25;nan;96887.38;4974662;28;20211;-78
2024/01/18 01:59:12;;;;;;;1.30;0.90;;;;;;;12.24;nan;96898.91;4972280;28;20601;-76
2024/01/18 02:01:41;;;;;;;3.25;1.73;;;;;;;12.23;nan;96902.53;4971610;28;20196;-76
2024/01/18 02:04:06;;;;;;;1.05;0.88;;;;;;;12.24;nan;96904.19;4970553;28;20711;-76
2024/01/18 02:06:34;;;;;;;2.90;1.03;;;;;;;12.25;nan;96893.47;4971311;28;20208;-76
2024/01/18 02:09:01;;;;;;;2.05;1.00;;;;;;;12.26;nan;96895.13;4972112;28;20940;-77
2024/01/18 02:11:27;;;;;;;1.10;1.00;;;;;;;12.27;nan;96890.66;4972029;28;20211;-77
2024/01/18 02:13:56;;;;;;;1.58;0.80;;;;;;;12.27;nan;96880.16;4974030;28;20549;-77
2024/01/18 02:16:23;;;;;;;1.27;0.80;;;;;;;12.27;nan;96875.69;4973256;28;20205;-77
2024/01/18 02:18:49;;;;;;;1.90;0.80;;;;;;;12.28;nan;96887.03;4973654;28;20233;-77
2024/01/18 02:21:14;;;;;;;0.93;0.67;;;;;;;12.26;nan;96878.50;4972419;28;20521;-77
2024/01/18 02:23:46;;;;;;;0.90;0.70;;;;;;;12.25;nan;96869.78;4972838;28;20836;-77
2024/01/18 02:26:11;;;;;;;3.47;0.90;;;;;;;12.31;nan;96878.78;4972677;28;20228;-76
2024/01/18 02:28:36;;;;;;;6.93;2.60;;;;;;;12.35;nan;96882.72;4971037;28;20203;-77
2024/01/18 02:31:02;;;;;;;2.00;0.80;;;;;;;12.34;nan;96878.44;4971569;28;20211;-77
2024/01/18 02:33:27;;;;;;;3.70;1.13;;;;;;;12.39;nan;96889.25;4972309;28;20281;-77
2024/01/18 02:35:54;;;;;;;0.80;0.67;;;;;;;12.36;nan;96874.63;4974153;28;20869;-77
2024/01/18 02:38:20;;;;;;;0.93;0.88;;;;;;;12.38;nan;96869.19;4971875;28;20341;-78
2024/01/18 02:40:45;;;;;;;1.30;0.83;;;;;;;12.36;nan;96860.66;4971934;28;20607;-77
2024/01/18 02:43:10;;;;;;;1.17;0.70;;;;;;;12.31;nan;96871.72;4969853;28;20258;-77
2024/01/18 02:45:36;;;;;;;2.90;0.90;;;;;;;12.29;nan;96860.56;4972235;28;20214;-77
2024/01/18 02:48:02;;;;;;;3.30;1.00;;;;;;;12.27;nan;96857.28;4971548;28;20754;-77
2024/01/18 02:50:28;;;;;;;4.15;0.85;;;;;;;12.27;nan;96866.97;4970934;28;20330;-77
2024/01/18 02:52:53;;;;;;;0.80;0.60;;;;;;;12.27;nan;96859.91;4972256;28;20903;-77
2024/01/18 02:55:19;;;;;;;1.70;0.70;;;;;;;12.25;nan;96853.97;4972148;28;21002;-77
2024/01/18 02:57:44;;;;;;;2.03;0.70;;;;;;;12.24;nan;96856.81;4971787;28;20212;-77
2024/01/18 03:00:11;;;;;;;2.40;0.90;;;;;;;12.21;nan;96851.91;4974969;28;20240;-77
2024/01/18 03:02:37;;;;;;;0.80;0.70;;;;;;;12.22;nan;96848.25;4970816;28;20203;-77
2024/01/18 03:05:02;;;;;;;1.53;0.90;;;;;;;12.20;nan;96855.50;4973285;28;20207;-77
2024/01/18 03:07:28;;;;;;;4.13;1.73;;;;;;;12.20;nan;96844.97;4974253;28;20182;-78
2024/01/18 03:09:54;;;;;;;1.60;0.68;;;;;;;12.23;nan;96844.63;4975581;28;20696;-77
2024/01/18 03:12:19;;;;;;;2.07;0.70;;;;;;;12.24;nan;96844.47;4972994;28;20481;-77
2024/01/18 03:14:45;;;;;;;1.57;0.70;;;;;;;12.26;nan;96839.84;4973319;28;20200;-77
2024/01/18 03:17:10;;;;;;;3.23;0.80;;;;;;;12.29;nan;96846.59;4975587;28;20239;-77
2024/01/18 03:19:36;;;;;;;0.90;0.80;;;;;;;12.31;nan;96844.56;4987136;28;20204;-77
2024/01/18 03:22:01;;;;;;;1.53;0.90;;;;;;;12.34;nan;96839.78;4989237;28;20203;-77
2024/01/18 03:24:27;;;;;;;0.70;0.63;;;;;;;12.35;nan;96830.88;4989742;28;20277;-76
2024/01/18 03:26:52;;;;;;;1.57;0.60;;;;;;;12.38;nan;96830.53;4988262;28;20223;-75
2024/01/18 03:29:17;;;;;;;1.07;0.63;;;;;;;12.37;nan;96828.09;4987524;28;20300;-77
2024/01/18 03:31:43;;;;;;;0.60;0.60;;;;;;;12.36;nan;96824.63;4977598;28;20212;-77
2024/01/18 03:34:08;;;;;;;1.03;0.80;;;;;;;12.38;nan;96811.28;4978169;28;20267;-78
2024/01/18 03:36:34;;;;;;;1.73;0.90;;;;;;;12.39;nan;96826.91;4978513;28;20447;-77
2024/01/18 03:38:59;;;;;;;2.10;0.90;;;;;;;12.40;nan;96815.38;4978475;28;20483;-77
2024/01/18 03:41:25;;;;;;;1.97;0.93;;;;;;;12.42;nan;96817.81;4976316;28;20631;-76
2024/01/18 03:43:50;;;;;;;1.70;0.70;;;;;;;12.44;nan;96822.91;4976516;28;20545;-77
2024/01/18 03:46:15;;;;;;;6.97;0.97;;;;;;;12.47;nan;96815.47;4977054;28;20199;-78
2024/01/18 03:48:41;;;;;;;1.23;0.70;;;;;;;12.48;nan;96813.69;4979315;28;20229;-76
2024/01/18 03:51:07;;;;;;;0.80;0.70;;;;;;;12.49;nan;96817.94;4979691;28;20191;-78
2024/01/18 03:53:32;;;;;;;1.00;0.60;;;;;;;12.48;nan;96822.41;4983169;28;20201;-76
2024/01/18 03:55:58;;;;;;;1.50;0.80;;;;;;;12.52;nan;96818.41;4996215;28;20200;-76
2024/01/18 03:58:23;;;;;;;1.10;0.80;;;;;;;12.54;nan;96821.69;4995980;28;20226;-77
2024/01/18 04:00:49;;;;;;;1.17;0.80;;;;;;;12.53;nan;96833.22;4980217;28;20207;-77
2024/01/18 04:03:14;;;;;;;1.90;0.70;;;;;;;12.48;nan;96832.94;4978266;28;21147;-77
2024/01/18 04:05:39;;;;;;;1.17;0.70;;;;;;;12.43;nan;96814.22;4976471;28;20576;-77
2024/01/18 04:08:05;;;;;;;1.47;0.60;;;;;;;12.40;nan;96833.81;4978316;28;20184;-78
2024/01/18 04:10:30;;;;;;;1.00;0.60;;;;;;;12.30;nan;96827.97;4976749;28;20206;-78
2024/01/18 04:12:56;;;;;;;1.90;0.73;;;;;;;12.25;nan;96829.50;4977084;28;20204;-77
2024/01/18 04:15:22;;;;;;;1.60;0.70;;;;;;;12.18;nan;96830.19;4977745;28;20315;-76
2024/01/18 04:17:47;;;;;;;0.60;0.53;;;;;;;12.08;nan;96816.44;4976980;28;20286;-77
2024/01/18 04:20:16;;;;;;;1.43;0.70;;;;;;;12.00;nan;96805.19;4974098;28;20313;-77
2024/01/18 04:22:43;;;;;;;0.90;0.70;;;;;;;11.94;nan;96812.78;4974392;28;20211;-77
2024/01/18 04:25:09;;;;;;;1.58;0.60;;;;;;;11.84;nan;96801.63;4975203;28;20568;-77
2024/01/18 04:27:35;;;;;;;0.80;0.60;;;;;;;11.83;nan;96796.56;4973301;28;20192;-76
2024/01/18 04:30:00;;;;;;;7.03;0.70;;;;;;;11.80;nan;96802.13;4972851;28;20695;-77
2024/01/18 04:32:26;;;;;;;1.87;0.70;;;;;;;11.78;nan;96802.31;4994440;28;20207;-78
2024/01/18 04:34:51;;;;;;;1.73;0.80;;;;;;;11.77;nan;96797.22;4970592;28;20191;-78
2024/01/18 04:37:17;;;;;;;1.53;0.60;;;;;;;11.75;nan;96794.78;4974394;28;20510;-78
2024/01/18 04:39:42;;;;;;;2.70;0.90;;;;;;;11.74;nan;96804.47;4974670;28;20700;-78
2024/01/18 04:42:10;;;;;;;0.90;0.60;;;;;;;11.72;nan;96800.41;4974429;28;20219;-78
2024/01/18 04:44:36;;;;;;;0.70;0.50;;;;;;;11.69;nan;96804.19;4975346;28;20818;-77
2024/01/18 04:47:01;;;;;;;0.70;0.60;;;;;;;11.68;nan;96802.53;4973251;28;20211;-78
2024/01/18 04:49:27;;;;;;;0.80;0.70;;;;;;;11.66;nan;96796.63;4973485;28;20206;-76
2024/01/18 04:51:52;;;;;;;4.40;1.23;;;;;;;11.65;nan;96802.06;4975383;28;20212;-78
2024/01/18 04:54:17;;;;;;;0.60;0.50;;;;;;;11.63;nan;96802.22;4974853;28;20702;-77
2024/01/18 04:56:43;;;;;;;1.43;0.80;;;;;;;11.63;nan;96806.69;4976401;28;20561;-78
2024/01/18 04:59:09;;;;;;;1.03;0.60;;;;;;;11.62;nan;96807.69;4976101;28;20296;-78
2024/01/18 05:01:39;;;;;;;0.80;0.60;;;;;;;11.62;nan;96805.06;4975030;28;20211;-79
2024/01/18 05:04:04;;;;;;;1.95;0.60;;;;;;;11.66;nan;96806.31;4975491;28;20541;-77
2024/01/18 05:06:30;;;;;;;1.73;0.70;;;;;;;11.67;nan;96807.97;4972637;28;20620;-78
2024/01/18 05:08:55;;;;;;;0.60;0.50;;;;;;;11.72;nan;96801.22;4971545;28;20734;-79
2024/01/18 05:11:21;;;;;;;0.60;0.60;;;;;;;11.80;nan;96799.50;4972967;28;20299;-77
2024/01/18 05:13:46;;;;;;;1.10;0.60;;;;;;;11.84;nan;96798.19;4973911;28;20274;-76
2024/01/18 05:16:12;;;;;;;0.90;0.70;;;;;;;11.88;nan;96789.81;4973409;28;20221;-79
2024/01/18 05:18:37;;;;;;;0.90;0.70;;;;;;;11.90;nan;96792.25;4972108;28;20238;-77
2024/01/18 05:21:03;;;;;;;0.70;0.67;;;;;;;11.91;nan;96788.63;4971022;28;20203;-77
2024/01/18 05:23:28;;;;;;;0.80;0.70;;;;;;;11.95;nan;96787.28;4972938;28;20235;-79
2024/01/18 05:25:54;;;;;;;1.83;0.80;;;;;;;11.95;nan;96785.47;4970660;28;20265;-78
2024/01/18 05:28:19;;;;;;;0.70;0.50;;;;;;;11.97;nan;96787.13;4972998;28;20204;-78
2024/01/18 05:30:45;;;;;;;1.13;0.67;;;;;;;11.97;nan;96777.41;4971424;28;20192;-77
2024/01/18 05:33:10;;;;;;;1.20;0.50;;;;;;;11.95;nan;96769.69;4971745;28;20666;-77
2024/01/18 05:35:35;;;;;;;0.90;0.87;;;;;;;11.94;nan;96783.84;4973200;28;20230;-78
2024/01/18 05:38:01;;;;;;;0.60;0.50;;;;;;;11.95;nan;96774.94;4973999;28;20203;-79
2024/01/18 05:40:26;;;;;;;0.60;0.60;;;;;;;11.98;nan;96768.50;4974506;28;20204;-77
2024/01/18 05:42:51;;;;;;;0.60;0.50;;;;;;;12.01;nan;96767.34;4972830;28;20683;-79
2024/01/18 05:45:17;;;;;;;0.60;0.50;;;;;;;12.03;nan;96768.00;4973370;28;20299;-78
2024/01/18 05:47:42;;;;;;;0.60;0.50;;;;;;;12.09;nan;96780.44;4975702;28;20214;-77
2024/01/18 05:50:08;;;;;;;0.60;0.50;;;;;;;12.13;nan;96772.03;4974425;28;20548;-78
2024/01/18 05:52:34;;;;;;;0.60;0.50;;;;;;;12.15;nan;96780.56;4986620;28;20203;-78
2024/01/18 05:54:59;;;;;;;0.60;0.60;;;;;;;12.20;nan;96768.66;4972521;28;20462;-79
2024/01/18 05:57:25;;;;;;;0.80;0.60;;;;;;;12.26;nan;96781.94;4970940;28;20231;-77
2024/01/18 05:59:50;;;;;;;0.80;0.60;;;;;;;12.28;nan;96779.94;4974808;28;20319;-78
2024/01/18 06:02:16;;;;;;;0.70;0.63;;;;;;;12.30;nan;96782.41;4973243;28;20200;-77
2024/01/18 06:04:41;;;;;;;0.60;0.50;;;;;;;12.28;nan;96769.41;4976614;28;20199;-78
2024/01/18 06:07:07;;;;;;;1.63;0.70;;;;;;;12.28;nan;96768.59;4973473;28;20205;-79
2024/01/18 06:09:32;;;;;;;1.10;0.70;;;;;;;12.30;nan;96770.06;4974694;28;20201;-77
2024/01/18 06:11:57;;;;;;;1.43;0.73;;;;;;;12.29;nan;96770.25;4974722;28;20678;-77
2024/01/18 06:14:23;;;;;;;1.00;0.70;;;;;;;12.27;nan;96762.53;4974948;28;20197;-79
2024/01/18 06:16:48;;;;;;;1.27;0.50;;;;;;;12.27;nan;96756.44;4978953;28;20235;-79
2024/01/18 06:19:14;;;;;;;0.90;0.60;;;;;;;12.30;nan;96764.78;4982598;28;20207;-77
2024/01/18 06:21:41;;;;;;;0.90;0.70;;;;;;;12.25;nan;96763.69;4980651;28;20220;-77
2024/01/18 06:24:07;;;;;;;0.80;0.55;;;;;;;12.29;nan;96752.66;4980010;28;20676;-76
2024/01/18 06:26:33;;;;;;;1.00;0.50;;;;;;;12.30;nan;96758.72;5028968;22;20468;-77
2024/01/18 06:28:58;;;;;;;0.63;0.50;;;;;;;12.30;nan;96758.72;4945245;28;20624;-77
2024/01/18 06:31:26;;;;;;;0.60;0.50;;;;;;;12.32;nan;96769.91;4955744;28;20668;-79
2024/01/18 06:33:56;;;;;;;0.60;0.60;;;;;;;12.34;nan;96762.63;4973841;28;20757;-79
2024/01/18 06:36:22;;;;;;;0.60;0.50;;;;;;;12.30;nan;96770.06;4973537;28;20215;-79
2024/01/18 06:38:49;;;;;;;0.80;0.60;;;;;;;12.30;nan;96759.53;4953023;28;20515;-79
2024/01/18 06:41:15;;;;;;;1.17;0.60;;;;;;;12.31;nan;96774.34;4953403;28;20488;-79
2024/01/18 06:43:40;;;;;;;1.07;0.50;;;;;;;12.33;nan;96769.69;4953323;28;20804;-78
2024/01/18 06:46:15;;;;;;;0.60;0.53;;;;;;;12.33;nan;96769.69;4953544;28;20456;-79
2024/01/18 06:48:41;;;;;;;1.63;0.60;;;;;;;12.34;nan;96759.97;4952561;28;20207;-78
2024/01/18 06:51:07;;;;;;;0.90;0.60;;;;;;;12.36;nan;96766.69;4953272;28;20561;-79
2024/01/18 06:53:32;;;;;;;0.83;0.70;;;;;;;12.38;nan;96774.44;4952758;28;20283;-79
2024/01/18 06:55:57;;;;;;;0.67;0.57;;;;;;;12.36;nan;96779.06;4954262;28;20223;-79
2024/01/18 06:58:23;;;;;;;1.20;0.60;;;;;;;12.38;nan;96785.78;4953587;28;20591;-79
2024/01/18 07:00:48;;;;;;;2.70;0.60;;;;;;;12.33;nan;96774.97;4953039;28;20283;-79
2024/01/18 07:03:14;;;;;;;0.70;0.50;;;;;;;12.33;nan;96787.31;4953076;28;20224;-79
2024/01/18 07:05:40;;;;;;;0.60;0.60;;;;;;;12.31;nan;96790.13;4952645;28;20204;-79
2024/01/18 07:08:05;;;;;;;0.77;0.70;;;;;;;12.31;nan;96802.44;4953306;28;20654;-79
2024/01/18 07:10:31;;;;;;;0.60;0.60;;;;;;;12.30;nan;96808.72;4952984;28;20616;-79
2024/01/18 07:12:56;;;;;;;0.70;0.70;;;;;;;12.21;nan;96800.09;4953898;28;20690;-79
2024/01/18 07:15:22;;;;;;;0.80;0.60;;;;;;;12.13;nan;96802.78;4952717;28;20200;-78
2024/01/18 07:17:47;;;;;;;0.60;0.60;;;;;;;12.08;nan;96805.94;4952064;28;20692;-79
2024/01/18 07:20:12;;;;;;;1.20;0.67;;;;;;;12.01;nan;96819.97;4952654;28;20566;-78
2024/01/18 07:22:38;;;;;;;0.70;0.60;;;;;;;11.95;nan;96805.69;4952193;28;20201;-78
2024/01/18 07:25:05;;;;;;;0.93;0.57;;;;;;;11.90;nan;96808.03;4953696;28;20239;-78
2024/01/18 07:27:31;;;;;;;1.15;0.70;;;;;;;11.90;nan;96810.66;4952956;28;20303;-78
2024/01/18 07:29:57;;;;;;;0.70;0.50;;;;;;;11.86;nan;96817.28;4952233;28;20419;-78
2024/01/18 07:32:23;;;;;;;0.63;0.50;;;;;;;11.83;nan;96826.28;4952161;28;21543;-78
2024/01/18 07:34:48;;;;;;;6.88;3.13;;;;;;;11.82;nan;96819.38;4952150;28;21185;-78
2024/01/18 07:37:14;;;;;;;2.30;1.27;;;;;;;11.82;nan;96824.63;4950427;28;20212;-78
2024/01/18 07:39:40;;;;;;;1.67;0.70;;;;;;;11.82;nan;96813.31;4953310;28;20247;-78
2024/01/18 07:42:12;;;;;;;0.65;0.60;;;;;;;11.80;nan;96823.16;4952642;28;20197;-78
2024/01/18 07:44:39;;;;;;;1.23;0.80;;;;;;;11.82;nan;96815.94;4951452;28;20775;-78
2024/01/18 07:47:07;;;;;;;1.20;1.08;;;;;;;11.85;nan;96828.72;4952170;28;20208;-78
2024/01/18 07:49:32;;;;;;;3.65;0.80;;;;;;;11.84;nan;96812.13;4951130;28;20536;-78
2024/01/18 07:51:57;;;;;;;0.77;0.63;;;;;;;11.81;nan;96822.19;4951808;28;20208;-78
2024/01/18 07:54:23;;;;;;;0.90;0.70;;;;;;;11.88;nan;96820.53;4952388;28;20278;-78
2024/01/18 07:56:48;;;;;;;0.70;0.60;;;;;;;11.95;nan;96827.56;4951371;28;20220;-79
2024/01/18 07:59:14;;;;;;;2.00;1.40;;;;;;;12.07;nan;96824.50;4952787;28;20208;-79
2024/01/18 08:01:40;;;;;;;1.10;0.70;;;;;;;12.13;nan;96822.00;4953134;28;20661;-78
2024/01/18 08:04:05;;;;;;;1.10;0.70;;;;;;;12.23;nan;96834.09;4951288;28;20251;-79
2024/01/18 08:06:31;;;;;;;0.70;0.60;;;;;;;12.26;nan;96828.47;4949997;28;20641;-79
2024/01/18 08:08:56;;;;;;;1.60;0.80;;;;;;;12.34;nan;96831.06;4951036;28;20448;-78
2024/01/18 08:11:21;;;;;;;0.70;0.57;;;;;;;12.36;nan;96829.06;4951348;28;20251;-79
2024/01/18 08:13:47;;;;;;;0.80;0.60;;;;;;;12.35;nan;96819.53;4951889;28;20584;-79
2024/01/18 08:16:12;;;;;;;1.93;0.90;;;;;;;12.34;nan;96817.88;4952427;28;20205;-78
2024/01/18 08:18:38;;;;;;;0.90;0.70;;;;;;;12.34;nan;96823.16;4950611;28;20213;-78
2024/01/18 08:21:04;;;;;;;0.70;0.60;;;;;;;12.34;nan;96837.16;4951385;28;20200;-79
2024/01/18 08:23:30;;;;;;;1.00;0.80;;;;;;;12.35;nan;96822.19;4951227;28;20640;-79
2024/01/18 08:25:55;;;;;;;1.40;0.90;;;;;;;12.36;nan;96826.44;4952131;28;20200;-78
2024/01/18 08:28:21;;;;;;;0.90;0.80;;;;;;;12.34;nan;96824.00;4951781;28;20224;-78
2024/01/18 08:30:47;;;;;;;0.70;0.60;;;;;;;12.35;nan;96819.53;4951667;28;20740;-79
2024/01/18 08:33:13;;;;;;;1.00;0.70;;;;;;;12.35;nan;96828.25;4950933;28;20709;-79
2024/01/18 08:35:38;;;;;;;1.43;0.70;;;;;;;12.35;nan;96820.34;4951023;28;20956;-79
2024/01/18 08:38:04;;;;;;;1.03;0.90;;;;;;;12.37;nan;96821.00;4950349;28;20469;-79
2024/01/18 08:40:30;;;;;;;1.20;0.90;;;;;;;12.38;nan;96809.47;4951009;28;20212;-79
2024/01/18 08:42:56;;;;;;;1.10;0.73;;;;;;;12.40;nan;96814.56;4950878;28;20201;-79
2024/01/18 08:45:24;;;;;;;1.63;0.90;;;;;;;12.39;nan;96819.03;4951678;28;20460;-79
2024/01/18 08:47:50;;;;;;;1.35;1.25;;;;;;;12.40;nan;96811.94;4950820;28;20228;-79
2024/01/18 08:50:15;;;;;;;1.00;0.90;;;;;;;12.42;nan;96820.44;4950818;28;20856;-79
2024/01/18 08:52:42;;;;;;;2.17;1.20;;;;;;;12.43;nan;96826.56;4951104;28;20200;-79
2024/01/18 08:55:08;;;;;;;1.95;1.23;;;;;;;12.45;nan;96825.38;4950577;28;20201;-79
2024/01/18 08:57:33;;;;;;;2.80;2.10;;;;;;;12.49;nan;96831.09;4950531;28;20211;-79
2024/01/18 08:59:59;;;;;;;1.30;0.90;;;;;;;12.53;nan;96837.63;4951697;28;21135;-78
2024/01/18 09:02:24;;;;;;;3.40;2.20;;;;;;;12.53;nan;96843.75;4950417;28;20193;-79
2024/01/18 09:04:50;;;;;;;3.77;2.47;;;;;;;12.57;nan;96828.41;4951157;28;20232;-79
2024/01/18 09:07:16;;;;;;;4.18;2.35;;;;;;;12.60;nan;96835.94;4950567;28;20228;-79
2024/01/18 09:09:41;;;;;;;0.90;0.80;;;;;;;12.66;nan;96839.69;4950850;28;20382;-79
2024/01/18 09:12:07;;;;;;;1.00;0.83;;;;;;;12.70;nan;96838.34;4950508;28;20207;-78
2024/01/18 09:14:32;;;;;;;1.07;0.80;;;;;;;12.71;nan;96839.97;4950782;28;20204;-79
2024/01/18 09:16:58;;;;;;;2.67;1.10;;;;;;;12.72;nan;96837.16;4950893;28;20294;-79
2024/01/18 09:19:23;;;;;;;3.93;1.40;;;;;;;12.71;nan;96839.97;4951171;28;20200;-79
2024/01/18 09:21:48;;;;;;;3.50;1.53;;;;;;;12.68;nan;96837.69;4950753;28;20200;-79
2024/01/18 09:24:14;;;;;;;3.20;1.50;;;;;;;12.66;nan;96837.84;4950985;28;20205;-79
2024/01/18 09:26:40;;;;;;;1.30;0.82;;;;;;;12.65;nan;96832.78;4950358;28;20208;-79
2024/01/18 09:29:05;;;;;;;1.10;0.60;;;;;;;12.66;nan;96835.22;4951382;28;20739;-79
2024/01/18 09:31:31;;;;;;;0.90;0.77;;;;;;;12.65;nan;96849.41;4952453;28;20469;-79
2024/01/18 09:33:57;;;;;;;3.63;1.63;;;;;;;12.62;nan;96847.94;4950606;28;20679;-78
2024/01/18 09:36:22;;;;;;;1.00;0.70;;;;;;;12.61;nan;96864.75;4950613;28;20350;-79
2024/01/18 09:38:48;;;;;;;1.90;1.00;;;;;;;12.61;nan;96858.66;4949679;28;20537;-78
2024/01/18 09:41:15;;;;;;;0.80;0.70;;;;;;;12.59;nan;96874.63;4950624;28;20234;-79
2024/01/18 09:43:42;;;;;;;1.75;1.65;;;;;;;12.54;nan;96916.47;4950371;28;20204;-78
2024/01/18 09:46:09;;;;;;;2.28;1.80;;;;;;;12.38;nan;96953.44;4949973;28;21607;-77
2024/01/18 09:48:35;;;;;;;2.55;2.25;;;;;;;11.47;nan;96939.00;4952330;28;20343;-78
2024/01/18 09:51:02;;;;;;;2.30;2.03;;;;;;;10.36;nan;96971.88;4949809;28;20902;-77
2024/01/18 09:53:28;;;;;;;2.10;1.90;;;;;;;9.22;nan;96992.31;4950556;28;20209;-77
2024/01/18 09:55:59;;;;;;;2.00;1.90;;;;;;;8.23;nan;97023.75;4950739;28;20736;-77
2024/01/18 09:58:25;;;;;;;2.15;1.95;;;;;;;7.11;nan;96993.22;4951198;28;20274;-77
2024/01/18 10:00:56;;;;;;;2.77;1.70;;;;;;;6.50;nan;97050.91;4954632;28;20221;-78
2024/01/18 10:03:22;;;;;;;5.00;2.72;;;;;;;6.09;nan;97094.44;4957988;28;20211;-79
2024/01/18 10:05:48;;;;;;;3.10;1.80;;;;;;;5.64;nan;97103.34;4955559;28;20205;-79
2024/01/18 10:08:14;;;;;;;2.40;2.20;;;;;;;5.31;nan;97110.41;4953948;28;20445;-78
2024/01/18 10:10:39;;;;;;;2.00;1.80;;;;;;;5.15;nan;97120.41;4952945;28;20208;-78
2024/01/18 10:13:04;;;;;;;1.80;1.67;;;;;;;5.01;nan;97137.16;4954584;28;20291;-78
2024/01/18 10:15:35;;;;;;;2.67;2.40;;;;;;;4.82;nan;97132.59;4956282;28;20568;-79
2024/01/18 10:18:04;;;;;;;3.38;2.47;;;;;;;4.59;nan;97149.19;4957712;28;20235;-79
2024/01/18 10:20:30;;;;;;;2.67;2.47;;;;;;;4.34;nan;97135.53;4959117;28;20211;-79
2024/01/18 10:22:56;;;;;;;4.00;2.85;;;;;;;4.12;nan;97146.75;4959180;28;20200;-79
2024/01/18 10:25:24;;;;;;;2.47;1.90;;;;;;;3.96;nan;97143.69;4956045;28;20232;-79
2024/01/18 10:27:56;;;;;;;2.65;2.45;;;;;;;3.79;nan;97159.72;4955913;28;20212;-79
2024/01/18 10:30:22;;;;;;;4.25;2.92;;;;;;;3.67;nan;97174.44;4957611;28;20204;-79
2024/01/18 10:32:48;;;;;;;2.92;2.42;;;;;;;3.60;nan;97205.22;4959349;28;20204;-79
2024/01/18 10:35:32;;;;;;;2.90;1.90;;;;;;;3.41;nan;97197.13;4957960;28;20585;-79
2024/01/18 10:38:06;;;;;;;4.07;2.08;;;;;;;3.32;nan;97212.44;4958561;28;20430;-79
2024/01/18 10:40:36;;;;;;;2.42;1.85;;;;;;;3.30;nan;97222.09;4960143;28;20204;-79
2024/01/18 10:43:04;;;;;;;2.08;1.77;;;;;;;3.17;nan;97233.47;4957805;28;20296;-79
2024/01/18 10:45:31;;;;;;;1.50;1.40;;;;;;;3.05;nan;97253.31;4956746;28;20192;-79
2024/01/18 10:47:57;;;;;;;1.38;1.27;;;;;;;3.02;nan;97246.56;4955553;28;20204;-79
2024/01/18 10:50:23;;;;;;;2.03;1.83;;;;;;;3.02;nan;97263.91;4953821;28;21067;-79
2024/01/18 10:52:50;;;;;;;4.23;1.53;;;;;;;2.95;nan;97273.06;4957150;28;20247;-80
2024/01/18 10:55:15;;;;;;;1.25;1.15;;;;;;;2.86;nan;97280.56;4956431;28;21012;-80
2024/01/18 10:57:41;;;;;;;1.73;1.50;;;;;;;2.80;nan;97272.34;4956306;28;21010;-80
2024/01/18 11:00:08;;;;;;;1.50;1.40;;;;;;;2.78;nan;97285.44;4955276;28;20212;-78
2024/01/18 11:02:40;;;;;;;1.98;1.42;;;;;;;2.77;nan;97291.53;4953266;28;20193;-80
2024/01/18 11:05:09;;;;;;;1.50;1.40;;;;;;;2.79;nan;97305.22;4953184;28;20204;-81
2024/01/18 11:07:38;;;;;;;1.90;1.25;;;;;;;2.83;nan;97319.63;4953948;28;20180;-79
2024/01/18 11:10:08;;;;;;;1.60;1.10;;;;;;;2.85;nan;97325.53;4953772;28;20262;-80
2024/01/18 11:12:34;;;;;;;1.42;1.33;;;;;;;2.88;nan;97327.09;4951302;28;20199;-81
2024/01/18 11:15:01;;;;;;;2.85;1.10;;;;;;;2.90;nan;97338.19;4954057;28;20600;-81
2024/01/18 11:17:27;;;;;;;1.83;1.40;;;;;;;2.91;nan;97350.22;4954136;28;20208;-80
2024/01/18 11:19:54;;;;;;;1.43;1.10;;;;;;;2.88;nan;97345.25;4954606;28;20693;-82
2024/01/18 11:22:24;;;;;;;4.15;1.73;;;;;;;2.84;nan;97357.59;4952549;28;20589;-82
2024/01/18 11:24:50;;;;;;;2.72;2.05;;;;;;;2.89;nan;97365.06;4953045;28;20229;-80
2024/01/18 11:27:20;;;;;;;1.60;1.50;;;;;;;2.90;nan;97363.31;4952493;28;20295;-81
2024/01/18 11:29:46;;;;;;;7.22;3.22;;;;;;;2.88;nan;97387.56;4952892;28;20234;-80
2024/01/18 11:32:14;;;;;;;2.10;1.75;;;;;;;2.81;nan;97401.06;4954816;28;20248;-79
2024/01/18 11:34:40;;;;;;;1.40;1.20;;;;;;;2.85;nan;97407.69;4957522;28;20212;-80
2024/01/18 11:37:10;;;;;;;1.50;0.80;;;;;;;2.85;nan;97412.88;4955143;28;20215;-82
2024/01/18 11:39:47;;;;;;;1.45;1.35;;;;;;;2.78;nan;97428.03;4958867;28;20204;-82
2024/01/18 11:42:19;;;;;;;1.67;1.20;;;;;;;2.79;nan;97408.94;4960308;28;20271;-82
2024/01/18 11:44:54;;;;;;;1.33;1.00;;;;;;;2.75;nan;97430.78;4962944;28;20208;-82